Aérodrome :
LOGIN :

S'inscrire | Disclaimer

   EN    FR    IT 

 










Légende :    VFR   VFR Marginal   IFR   IFR Intensif   IFR Très Intensif
Visi : 
Plafond : 
>= 8 km
>= 3000ft
5 à 8 km
1000 à 3000 ft
1500m à 5 km
500 à 1000 ft
800 à 1500m
200 à 500 ft
< 800m
< 200 ft
Symboles :   Orages  Brouillard  Fortes neiges  Fortes précipitations  Vent > 20 kt
SIGMETs :   Divers  Orages  Givrage  Turbulence  Onde Orograph.  Cendres Volcan.







- Altitude de l'aérodrome : 256 ft
- Code IATA : CFR
- Voir les cartes d'approche


LFRK - Caen

DERNIER METAR :
  • 222130Z AUTO 27005KT 9999 SCT035 15/12 Q1017

METARs EXPIRÉS :
  • 222100Z AUTO 28005KT 9999 OVC034 16/13 Q1017
  • 222030Z AUTO 29007KT 9999 BKN032 17/13 Q1017
  • 222000Z AUTO 28008KT 9999 OVC032 19/13 Q1017 NOSIG
  • 221930Z AUTO 28009KT 9999 OVC030 19/14 Q1017 NOSIG
  • 221900Z AUTO 28011KT 250V310 9999 BKN028 20/14 Q1017 NOSIG

TAF TAF LFRK
Valide du 22 à 15h jusqu'au 23 à 00h UTC


221400Z 2215/2224 28010KT 9999 BKN025
BECMG 2216/2218 33010KT
BECMG 2218/2221 28008KT
Météo : +33 2 31 26 68 11
Pas de NOTAMs connus pour ce terrain.



MET'MAP, la Météo Aéronautique d'un coup d'oeil ! - Copyright ORBIFLY Décembre 2007 - Disclaimer

ORBIFLY MET'MAP TEAM :

Programmation & Développement : Alexandra Zaïnal
Conception & Développement : Baudouin d'Aumeries
Co-Programmation & Développement : Marc-Olivier Méhu
Soutien technique & logistique : Manuel Goepfert

Contact : metmap@orbifly.com




SOURCES & CREDITS :

   NOAA